CheckWX is a tool to help pilots better visualize weather data.  It is not intended as a substitute for an official pre-flight weather briefing.

01:08:39 UTC

GMMZ METAR
Ouarzazate Airport
Ouarzazate, Morocco
Current

1 hour ago

GMMZ 240000Z 27007KT CAVOK 11/M03 Q1026 NOSIG
Observed
Feb-24 @ 00:00 UTC
Wind
  • 270° at 7 KTS
Visibility
10,000+ meters
Flight Rules
VFR
Cloud Levels
  • Clear skies
Temperature
11°C / 52°F
Dewpoint
-3°C / 27°F
Humidity
38%
Altimeter
30.3" Hg
Pressure
1025.92 hPa
Previous

2 hours ago

GMMZ 232300Z 26005KT CAVOK 15/M05 Q1026 NOSIG
Observed
Feb-23 @ 23:00 UTC
Wind
  • 260° at 5 KTS
Visibility
10,000+ meters
Flight Rules
VFR
Cloud Levels
  • Clear skies
Temperature
15°C / 59°F
Dewpoint
-5°C / 23°F
Humidity
25%
Altimeter
30.3" Hg
Pressure
1025.92 hPa
Previous

3 hours ago

GMMZ 232200Z 25006KT CAVOK 16/M07 Q1026 NOSIG
Observed
Feb-23 @ 22:00 UTC
Wind
  • 250° at 6 KTS
Visibility
10,000+ meters
Flight Rules
VFR
Cloud Levels
  • Clear skies
Temperature
16°C / 61°F
Dewpoint
-7°C / 19°F
Humidity
20%
Altimeter
30.3" Hg
Pressure
1025.92 hPa